Terminal Aerodrome Forecast
Issued by NWS

Home | Current Version | Previous Version | Text Only | Print | Product List | Glossary On
Versions: 1 2 3 4 5 6 7 8 9 10 11 12 13 14 15
018
FTUS43 KGRB 141720
TAFMTW
TAF
KMTW 141720Z 1418/1518 15006KT 3/4SM -SN OVC025
      TEMPO 1418/1422 2SM -SN
     FM142200 15013G21KT 2SM -SN OVC020
     FM150600 17010KT 2SM -SN OVC020
     FM150900 17007KT 4SM -SN BKN020 OVC035
     FM151500 23007KT P6SM -SN OVC030=

USA.gov is the U.S. government's official web portal to all federal, state and local government web resources and services.